sensor_id;sensor_type;location;lat;lon;timestamp;P1;durP1;ratioP1;P2;durP2;ratioP2
4583;SDS011;2304;47.606;12.186;2023-06-22T00:00:17;22.10;;;13.10;;
4583;SDS011;2304;47.606;12.186;2023-06-22T00:05:21;27.13;;;12.90;;
4583;SDS011;2304;47.606;12.186;2023-06-22T00:10:23;24.33;;;13.77;;
4583;SDS011;2304;47.606;12.186;2023-06-22T00:15:25;29.53;;;13.83;;
4583;SDS011;2304;47.606;12.186;2023-06-22T00:20:29;24.30;;;12.50;;
4583;SDS011;2304;47.606;12.186;2023-06-22T00:25:32;20.07;;;10.83;;
4583;SDS011;2304;47.606;12.186;2023-06-22T00:30:34;22.10;;;12.63;;
4583;SDS011;2304;47.606;12.186;2023-06-22T00:35:37;27.60;;;13.63;;
4583;SDS011;2304;47.606;12.186;2023-06-22T00:40:41;30.70;;;13.67;;
4583;SDS011;2304;47.606;12.186;2023-06-22T00:45:43;30.90;;;13.47;;
4583;SDS011;2304;47.606;12.186;2023-06-22T00:50:46;27.13;;;14.50;;
4583;SDS011;2304;47.606;12.186;2023-06-22T00:55:50;31.03;;;12.47;;
4583;SDS011;2304;47.606;12.186;2023-06-22T01:00:52;26.63;;;14.10;;
4583;SDS011;2304;47.606;12.186;2023-06-22T01:05:58;24.20;;;14.50;;
4583;SDS011;2304;47.606;12.186;2023-06-22T01:11:10;24.60;;;12.10;;
4583;SDS011;2304;47.606;12.186;2023-06-22T01:16:17;23.57;;;14.07;;
4583;SDS011;2304;47.606;12.186;2023-06-22T01:21:25;28.27;;;14.50;;
4583;SDS011;2304;47.606;12.186;2023-06-22T01:26:38;26.67;;;14.00;;
4583;SDS011;2304;47.606;12.186;2023-06-22T01:31:49;22.80;;;13.60;;
4583;SDS011;2304;47.606;12.186;2023-06-22T01:36:51;23.90;;;15.17;;
4583;SDS011;2304;47.606;12.186;2023-06-22T01:41:54;30.50;;;14.53;;
4583;SDS011;2304;47.606;12.186;2023-06-22T01:46:58;26.33;;;14.67;;
4583;SDS011;2304;47.606;12.186;2023-06-22T01:52:01;29.23;;;14.70;;
4583;SDS011;2304;47.606;12.186;2023-06-22T01:57:03;27.20;;;15.23;;
4583;SDS011;2304;47.606;12.186;2023-06-22T02:02:07;26.50;;;15.10;;
4583;SDS011;2304;47.606;12.186;2023-06-22T02:07:12;32.40;;;14.20;;
4583;SDS011;2304;47.606;12.186;2023-06-22T02:12:17;32.03;;;16.20;;
4583;SDS011;2304;47.606;12.186;2023-06-22T02:17:24;27.13;;;13.33;;
4583;SDS011;2304;47.606;12.186;2023-06-22T02:22:27;23.90;;;14.10;;
4583;SDS011;2304;47.606;12.186;2023-06-22T02:27:29;23.23;;;15.00;;
4583;SDS011;2304;47.606;12.186;2023-06-22T02:32:32;25.83;;;14.70;;
4583;SDS011;2304;47.606;12.186;2023-06-22T02:37:35;25.73;;;15.60;;
4583;SDS011;2304;47.606;12.186;2023-06-22T02:42:39;25.33;;;15.87;;
4583;SDS011;2304;47.606;12.186;2023-06-22T02:47:42;22.27;;;15.43;;
4583;SDS011;2304;47.606;12.186;2023-06-22T02:52:44;24.63;;;14.10;;
4583;SDS011;2304;47.606;12.186;2023-06-22T02:57:46;23.93;;;15.07;;
4583;SDS011;2304;47.606;12.186;2023-06-22T03:02:53;29.50;;;15.73;;
4583;SDS011;2304;47.606;12.186;2023-06-22T03:07:55;26.43;;;15.07;;
4583;SDS011;2304;47.606;12.186;2023-06-22T03:12:57;22.13;;;13.90;;
4583;SDS011;2304;47.606;12.186;2023-06-22T03:18:00;19.10;;;12.17;;
4583;SDS011;2304;47.606;12.186;2023-06-22T03:23:02;19.20;;;13.07;;
4583;SDS011;2304;47.606;12.186;2023-06-22T03:28:05;24.10;;;13.63;;
4583;SDS011;2304;47.606;12.186;2023-06-22T03:33:08;20.53;;;12.60;;
4583;SDS011;2304;47.606;12.186;2023-06-22T03:38:09;30.27;;;13.50;;
4583;SDS011;2304;47.606;12.186;2023-06-22T03:43:11;19.90;;;13.30;;
4583;SDS011;2304;47.606;12.186;2023-06-22T03:48:14;23.20;;;13.63;;
4583;SDS011;2304;47.606;12.186;2023-06-22T03:53:16;23.60;;;14.83;;
4583;SDS011;2304;47.606;12.186;2023-06-22T03:58:18;26.83;;;14.70;;
4583;SDS011;2304;47.606;12.186;2023-06-22T04:03:23;30.40;;;15.00;;
4583;SDS011;2304;47.606;12.186;2023-06-22T04:08:24;22.57;;;14.17;;
4583;SDS011;2304;47.606;12.186;2023-06-22T04:13:26;29.97;;;13.90;;
4583;SDS011;2304;47.606;12.186;2023-06-22T04:18:29;26.03;;;13.70;;
4583;SDS011;2304;47.606;12.186;2023-06-22T04:23:31;22.17;;;13.90;;
4583;SDS011;2304;47.606;12.186;2023-06-22T04:28:33;24.23;;;14.60;;
4583;SDS011;2304;47.606;12.186;2023-06-22T04:33:37;24.93;;;14.63;;
4583;SDS011;2304;47.606;12.186;2023-06-22T04:38:40;27.67;;;15.60;;
4583;SDS011;2304;47.606;12.186;2023-06-22T04:43:44;27.47;;;15.90;;
4583;SDS011;2304;47.606;12.186;2023-06-22T04:48:55;28.30;;;15.30;;
4583;SDS011;2304;47.606;12.186;2023-06-22T04:53:57;22.80;;;13.23;;
4583;SDS011;2304;47.606;12.186;2023-06-22T04:59:01;25.80;;;15.77;;
4583;SDS011;2304;47.606;12.186;2023-06-22T05:04:05;25.10;;;14.30;;
4583;SDS011;2304;47.606;12.186;2023-06-22T05:09:07;24.60;;;14.17;;
4583;SDS011;2304;47.606;12.186;2023-06-22T05:14:09;29.80;;;14.33;;
4583;SDS011;2304;47.606;12.186;2023-06-22T05:19:12;26.73;;;13.90;;
4583;SDS011;2304;47.606;12.186;2023-06-22T05:24:14;23.23;;;13.87;;
4583;SDS011;2304;47.606;12.186;2023-06-22T05:29:16;32.30;;;14.37;;
4583;SDS011;2304;47.606;12.186;2023-06-22T05:34:19;29.43;;;13.60;;
4583;SDS011;2304;47.606;12.186;2023-06-22T05:39:21;25.70;;;14.17;;
4583;SDS011;2304;47.606;12.186;2023-06-22T05:44:23;23.13;;;13.50;;
4583;SDS011;2304;47.606;12.186;2023-06-22T05:49:26;26.20;;;13.40;;
4583;SDS011;2304;47.606;12.186;2023-06-22T05:54:29;25.03;;;14.07;;
4583;SDS011;2304;47.606;12.186;2023-06-22T05:59:31;23.20;;;13.50;;
4583;SDS011;2304;47.606;12.186;2023-06-22T06:04:35;29.07;;;14.20;;
4583;SDS011;2304;47.606;12.186;2023-06-22T06:09:36;21.60;;;13.17;;
4583;SDS011;2304;47.606;12.186;2023-06-22T06:14:38;20.20;;;12.37;;
4583;SDS011;2304;47.606;12.186;2023-06-22T06:19:41;27.23;;;12.80;;
4583;SDS011;2304;47.606;12.186;2023-06-22T06:24:43;21.67;;;12.17;;
4583;SDS011;2304;47.606;12.186;2023-06-22T06:29:45;31.47;;;13.07;;
4583;SDS011;2304;47.606;12.186;2023-06-22T06:34:50;24.70;;;14.07;;
4583;SDS011;2304;47.606;12.186;2023-06-22T06:39:51;23.33;;;12.60;;
4583;SDS011;2304;47.606;12.186;2023-06-22T06:44:53;23.83;;;11.33;;
4583;SDS011;2304;47.606;12.186;2023-06-22T06:49:56;28.73;;;12.57;;
4583;SDS011;2304;47.606;12.186;2023-06-22T06:54:58;24.40;;;13.70;;
4583;SDS011;2304;47.606;12.186;2023-06-22T07:00:00;21.03;;;12.40;;
4583;SDS011;2304;47.606;12.186;2023-06-22T07:05:08;21.50;;;12.73;;
4583;SDS011;2304;47.606;12.186;2023-06-22T07:10:10;28.77;;;13.40;;
4583;SDS011;2304;47.606;12.186;2023-06-22T07:15:13;23.00;;;12.50;;
4583;SDS011;2304;47.606;12.186;2023-06-22T07:20:16;25.10;;;12.73;;
4583;SDS011;2304;47.606;12.186;2023-06-22T07:25:19;27.60;;;13.17;;
4583;SDS011;2304;47.606;12.186;2023-06-22T07:30:21;23.77;;;12.43;;
4583;SDS011;2304;47.606;12.186;2023-06-22T07:35:24;19.47;;;12.53;;
4583;SDS011;2304;47.606;12.186;2023-06-22T07:40:26;22.20;;;12.63;;
4583;SDS011;2304;47.606;12.186;2023-06-22T07:45:28;19.40;;;12.37;;
4583;SDS011;2304;47.606;12.186;2023-06-22T07:50:31;24.57;;;12.63;;
4583;SDS011;2304;47.606;12.186;2023-06-22T07:55:33;22.67;;;12.33;;
4583;SDS011;2304;47.606;12.186;2023-06-22T08:00:35;25.70;;;11.87;;
4583;SDS011;2304;47.606;12.186;2023-06-22T08:05:38;21.47;;;11.30;;
4583;SDS011;2304;47.606;12.186;2023-06-22T08:10:40;23.30;;;12.57;;
4583;SDS011;2304;47.606;12.186;2023-06-22T08:15:42;20.03;;;12.63;;
4583;SDS011;2304;47.606;12.186;2023-06-22T08:20:45;26.27;;;12.20;;
4583;SDS011;2304;47.606;12.186;2023-06-22T08:25:47;26.10;;;12.73;;
4583;SDS011;2304;47.606;12.186;2023-06-22T08:30:50;22.30;;;11.20;;
4583;SDS011;2304;47.606;12.186;2023-06-22T08:35:53;23.90;;;12.37;;
4583;SDS011;2304;47.606;12.186;2023-06-22T08:40:55;23.07;;;11.30;;
4583;SDS011;2304;47.606;12.186;2023-06-22T08:45:57;23.37;;;10.87;;
4583;SDS011;2304;47.606;12.186;2023-06-22T08:51:00;22.83;;;11.57;;
4583;SDS011;2304;47.606;12.186;2023-06-22T08:56:02;27.10;;;11.53;;
4583;SDS011;2304;47.606;12.186;2023-06-22T09:01:04;27.97;;;10.50;;
4583;SDS011;2304;47.606;12.186;2023-06-22T09:06:08;19.93;;;10.37;;
4583;SDS011;2304;47.606;12.186;2023-06-22T09:11:10;17.93;;;10.53;;
4583;SDS011;2304;47.606;12.186;2023-06-22T09:16:12;25.07;;;11.70;;
4583;SDS011;2304;47.606;12.186;2023-06-22T09:21:16;29.20;;;11.90;;
4583;SDS011;2304;47.606;12.186;2023-06-22T09:26:17;21.33;;;10.83;;
4583;SDS011;2304;47.606;12.186;2023-06-22T09:31:20;18.23;;;10.27;;
4583;SDS011;2304;47.606;12.186;2023-06-22T09:36:26;23.10;;;11.50;;
4583;SDS011;2304;47.606;12.186;2023-06-22T09:41:28;24.80;;;12.33;;
4583;SDS011;2304;47.606;12.186;2023-06-22T09:46:30;25.97;;;12.83;;
4583;SDS011;2304;47.606;12.186;2023-06-22T09:51:33;24.00;;;12.53;;
4583;SDS011;2304;47.606;12.186;2023-06-22T09:56:35;23.77;;;11.90;;
4583;SDS011;2304;47.606;12.186;2023-06-22T10:01:37;24.40;;;11.70;;
4583;SDS011;2304;47.606;12.186;2023-06-22T10:06:40;22.53;;;12.00;;
4583;SDS011;2304;47.606;12.186;2023-06-22T10:11:42;33.73;;;11.53;;
4583;SDS011;2304;47.606;12.186;2023-06-22T10:16:44;24.43;;;11.97;;
4583;SDS011;2304;47.606;12.186;2023-06-22T10:21:47;27.53;;;13.60;;
4583;SDS011;2304;47.606;12.186;2023-06-22T10:26:49;22.40;;;12.40;;
4583;SDS011;2304;47.606;12.186;2023-06-22T10:31:51;24.53;;;11.90;;
4583;SDS011;2304;47.606;12.186;2023-06-22T10:36:54;19.50;;;11.60;;
4583;SDS011;2304;47.606;12.186;2023-06-22T10:41:56;22.53;;;11.63;;
4583;SDS011;2304;47.606;12.186;2023-06-22T10:46:58;30.60;;;10.70;;
4583;SDS011;2304;47.606;12.186;2023-06-22T10:52:01;26.13;;;11.03;;
4583;SDS011;2304;47.606;12.186;2023-06-22T10:57:03;24.10;;;10.87;;
4583;SDS011;2304;47.606;12.186;2023-06-22T11:02:05;24.55;;;12.10;;
4583;SDS011;2304;47.606;12.186;2023-06-22T11:07:08;23.23;;;12.13;;
4583;SDS011;2304;47.606;12.186;2023-06-22T11:12:11;29.67;;;11.32;;
4583;SDS011;2304;47.606;12.186;2023-06-22T11:17:13;20.75;;;9.75;;
4583;SDS011;2304;47.606;12.186;2023-06-22T11:22:16;21.30;;;11.23;;
4583;SDS011;2304;47.606;12.186;2023-06-22T11:27:18;19.67;;;9.60;;
4583;SDS011;2304;47.606;12.186;2023-06-22T11:32:20;19.70;;;10.10;;
4583;SDS011;2304;47.606;12.186;2023-06-22T11:37:23;27.17;;;9.45;;
4583;SDS011;2304;47.606;12.186;2023-06-22T11:42:25;29.90;;;9.60;;
4583;SDS011;2304;47.606;12.186;2023-06-22T11:47:28;22.70;;;9.38;;
4583;SDS011;2304;47.606;12.186;2023-06-22T11:52:33;18.62;;;8.93;;
4583;SDS011;2304;47.606;12.186;2023-06-22T11:57:36;23.30;;;9.75;;
4583;SDS011;2304;47.606;12.186;2023-06-22T12:02:38;25.08;;;8.90;;
4583;SDS011;2304;47.606;12.186;2023-06-22T12:07:41;23.40;;;9.75;;
4583;SDS011;2304;47.606;12.186;2023-06-22T12:12:43;20.35;;;9.50;;
4583;SDS011;2304;47.606;12.186;2023-06-22T12:17:45;22.70;;;9.50;;
4583;SDS011;2304;47.606;12.186;2023-06-22T12:22:49;23.58;;;9.82;;
4583;SDS011;2304;47.606;12.186;2023-06-22T12:27:51;20.83;;;9.85;;
4583;SDS011;2304;47.606;12.186;2023-06-22T12:32:54;24.17;;;9.20;;
4583;SDS011;2304;47.606;12.186;2023-06-22T12:37:57;19.37;;;9.52;;
4583;SDS011;2304;47.606;12.186;2023-06-22T12:42:59;22.55;;;9.10;;
4583;SDS011;2304;47.606;12.186;2023-06-22T12:48:02;32.47;;;10.38;;
4583;SDS011;2304;47.606;12.186;2023-06-22T12:53:05;23.42;;;9.85;;
4583;SDS011;2304;47.606;12.186;2023-06-22T12:58:07;21.17;;;9.00;;
4583;SDS011;2304;47.606;12.186;2023-06-22T13:03:09;22.42;;;9.07;;
4583;SDS011;2304;47.606;12.186;2023-06-22T13:08:12;20.25;;;8.43;;
4583;SDS011;2304;47.606;12.186;2023-06-22T13:13:14;26.40;;;8.88;;
4583;SDS011;2304;47.606;12.186;2023-06-22T13:18:16;18.60;;;8.60;;
4583;SDS011;2304;47.606;12.186;2023-06-22T13:23:19;18.40;;;7.87;;
4583;SDS011;2304;47.606;12.186;2023-06-22T13:28:21;22.20;;;8.63;;
4583;SDS011;2304;47.606;12.186;2023-06-22T13:33:23;24.80;;;8.20;;
4583;SDS011;2304;47.606;12.186;2023-06-22T13:38:26;27.83;;;8.68;;
4583;SDS011;2304;47.606;12.186;2023-06-22T13:43:28;18.37;;;8.93;;
4583;SDS011;2304;47.606;12.186;2023-06-22T13:48:29;21.27;;;8.60;;
4583;SDS011;2304;47.606;12.186;2023-06-22T13:53:33;22.50;;;8.20;;
4583;SDS011;2304;47.606;12.186;2023-06-22T13:58:34;24.30;;;8.32;;
4583;SDS011;2304;47.606;12.186;2023-06-22T14:03:36;26.05;;;8.35;;
4583;SDS011;2304;47.606;12.186;2023-06-22T14:08:39;19.90;;;8.35;;
4583;SDS011;2304;47.606;12.186;2023-06-22T14:13:41;25.12;;;8.85;;
4583;SDS011;2304;47.606;12.186;2023-06-22T14:18:44;23.65;;;9.55;;
4583;SDS011;2304;47.606;12.186;2023-06-22T14:23:48;23.60;;;8.98;;
4583;SDS011;2304;47.606;12.186;2023-06-22T14:28:50;20.80;;;9.38;;
4583;SDS011;2304;47.606;12.186;2023-06-22T14:33:52;23.08;;;8.60;;
4583;SDS011;2304;47.606;12.186;2023-06-22T14:38:55;24.67;;;9.07;;
4583;SDS011;2304;47.606;12.186;2023-06-22T14:43:56;17.55;;;8.90;;
4583;SDS011;2304;47.606;12.186;2023-06-22T14:48:58;27.52;;;9.18;;
4583;SDS011;2304;47.606;12.186;2023-06-22T14:54:02;21.65;;;9.20;;
4583;SDS011;2304;47.606;12.186;2023-06-22T14:59:03;30.23;;;9.70;;
4583;SDS011;2304;47.606;12.186;2023-06-22T15:04:05;16.85;;;8.88;;
4583;SDS011;2304;47.606;12.186;2023-06-22T15:09:08;25.52;;;9.20;;
4583;SDS011;2304;47.606;12.186;2023-06-22T15:14:10;30.25;;;10.75;;
4583;SDS011;2304;47.606;12.186;2023-06-22T15:19:14;23.27;;;10.07;;
4583;SDS011;2304;47.606;12.186;2023-06-22T15:24:17;27.13;;;9.82;;
4583;SDS011;2304;47.606;12.186;2023-06-22T15:29:19;20.83;;;9.68;;
4583;SDS011;2304;47.606;12.186;2023-06-22T15:34:21;18.48;;;9.05;;
4583;SDS011;2304;47.606;12.186;2023-06-22T15:39:24;18.62;;;8.80;;
4583;SDS011;2304;47.606;12.186;2023-06-22T15:44:26;18.55;;;8.20;;
4583;SDS011;2304;47.606;12.186;2023-06-22T15:49:28;19.08;;;8.93;;
4583;SDS011;2304;47.606;12.186;2023-06-22T15:54:31;26.58;;;8.63;;
4583;SDS011;2304;47.606;12.186;2023-06-22T15:59:33;25.33;;;8.65;;
4583;SDS011;2304;47.606;12.186;2023-06-22T16:04:35;17.42;;;9.05;;
4583;SDS011;2304;47.606;12.186;2023-06-22T16:09:39;16.92;;;8.07;;
4583;SDS011;2304;47.606;12.186;2023-06-22T16:14:40;19.42;;;8.48;;
4583;SDS011;2304;47.606;12.186;2023-06-22T16:19:42;23.42;;;8.50;;
4583;SDS011;2304;47.606;12.186;2023-06-22T16:24:45;18.67;;;8.35;;
4583;SDS011;2304;47.606;12.186;2023-06-22T16:29:47;21.37;;;8.63;;
4583;SDS011;2304;47.606;12.186;2023-06-22T16:34:49;17.55;;;7.82;;
4583;SDS011;2304;47.606;12.186;2023-06-22T16:39:52;22.05;;;8.05;;
4583;SDS011;2304;47.606;12.186;2023-06-22T16:44:54;21.50;;;9.82;;
4583;SDS011;2304;47.606;12.186;2023-06-22T16:49:56;25.77;;;8.70;;
4583;SDS011;2304;47.606;12.186;2023-06-22T16:54:59;17.98;;;7.97;;
4583;SDS011;2304;47.606;12.186;2023-06-22T17:00:02;24.12;;;8.98;;
4583;SDS011;2304;47.606;12.186;2023-06-22T17:05:08;25.65;;;8.25;;
4583;SDS011;2304;47.606;12.186;2023-06-22T17:10:11;24.30;;;8.82;;
4583;SDS011;2304;47.606;12.186;2023-06-22T17:15:13;19.02;;;8.68;;
4583;SDS011;2304;47.606;12.186;2023-06-22T17:20:15;20.85;;;8.75;;
4583;SDS011;2304;47.606;12.186;2023-06-22T17:25:19;19.77;;;8.63;;
4583;SDS011;2304;47.606;12.186;2023-06-22T17:30:24;19.67;;;8.25;;
4583;SDS011;2304;47.606;12.186;2023-06-22T17:35:26;25.35;;;9.00;;
4583;SDS011;2304;47.606;12.186;2023-06-22T17:40:32;21.58;;;8.65;;
4583;SDS011;2304;47.606;12.186;2023-06-22T17:45:39;20.08;;;8.38;;
4583;SDS011;2304;47.606;12.186;2023-06-22T17:50:42;20.33;;;8.50;;
4583;SDS011;2304;47.606;12.186;2023-06-22T17:55:45;17.90;;;8.07;;
4583;SDS011;2304;47.606;12.186;2023-06-22T18:00:47;20.98;;;7.72;;
4583;SDS011;2304;47.606;12.186;2023-06-22T18:05:49;24.87;;;9.38;;
4583;SDS011;2304;47.606;12.186;2023-06-22T18:10:52;20.85;;;8.30;;
4583;SDS011;2304;47.606;12.186;2023-06-22T18:15:57;21.65;;;8.82;;
4583;SDS011;2304;47.606;12.186;2023-06-22T18:20:59;20.85;;;8.35;;
4583;SDS011;2304;47.606;12.186;2023-06-22T18:26:04;22.05;;;9.23;;
4583;SDS011;2304;47.606;12.186;2023-06-22T18:31:06;24.55;;;8.52;;
4583;SDS011;2304;47.606;12.186;2023-06-22T18:36:09;20.27;;;8.02;;
4583;SDS011;2304;47.606;12.186;2023-06-22T18:41:21;23.17;;;6.57;;
4583;SDS011;2304;47.606;12.186;2023-06-22T18:46:28;14.43;;;6.90;;
4583;SDS011;2304;47.606;12.186;2023-06-22T18:51:47;16.48;;;6.93;;
4583;SDS011;2304;47.606;12.186;2023-06-22T18:56:52;19.20;;;6.60;;
4583;SDS011;2304;47.606;12.186;2023-06-22T19:01:59;14.37;;;6.30;;
4583;SDS011;2304;47.606;12.186;2023-06-22T19:07:01;14.13;;;6.40;;
4583;SDS011;2304;47.606;12.186;2023-06-22T19:12:17;14.40;;;5.60;;
4583;SDS011;2304;47.606;12.186;2023-06-22T19:17:22;13.83;;;5.93;;
4583;SDS011;2304;47.606;12.186;2023-06-22T19:22:37;18.53;;;6.50;;
4583;SDS011;2304;47.606;12.186;2023-06-22T19:27:47;13.77;;;5.90;;
4583;SDS011;2304;47.606;12.186;2023-06-22T19:32:51;21.53;;;6.40;;
4583;SDS011;2304;47.606;12.186;2023-06-22T19:37:52;19.17;;;6.20;;
4583;SDS011;2304;47.606;12.186;2023-06-22T19:42:56;15.03;;;5.53;;
4583;SDS011;2304;47.606;12.186;2023-06-22T19:47:58;18.67;;;6.20;;
4583;SDS011;2304;47.606;12.186;2023-06-22T19:52:59;22.27;;;7.27;;
4583;SDS011;2304;47.606;12.186;2023-06-22T19:58:03;17.57;;;6.93;;
4583;SDS011;2304;47.606;12.186;2023-06-22T20:03:07;14.30;;;6.00;;
4583;SDS011;2304;47.606;12.186;2023-06-22T20:08:10;14.43;;;6.30;;
4583;SDS011;2304;47.606;12.186;2023-06-22T20:13:15;16.87;;;5.90;;
4583;SDS011;2304;47.606;12.186;2023-06-22T20:18:21;24.23;;;6.33;;
4583;SDS011;2304;47.606;12.186;2023-06-22T20:23:23;12.83;;;5.70;;
4583;SDS011;2304;47.606;12.186;2023-06-22T20:28:26;17.83;;;6.70;;
4583;SDS011;2304;47.606;12.186;2023-06-22T20:33:29;17.63;;;6.20;;
4583;SDS011;2304;47.606;12.186;2023-06-22T20:38:31;15.27;;;6.50;;
4583;SDS011;2304;47.606;12.186;2023-06-22T20:43:34;9.77;;;5.20;;
4583;SDS011;2304;47.606;12.186;2023-06-22T20:48:36;17.60;;;6.20;;
4583;SDS011;2304;47.606;12.186;2023-06-22T20:53:38;16.87;;;5.90;;
4583;SDS011;2304;47.606;12.186;2023-06-22T20:58:41;16.07;;;6.17;;
4583;SDS011;2304;47.606;12.186;2023-06-22T21:03:43;17.63;;;6.20;;
4583;SDS011;2304;47.606;12.186;2023-06-22T21:08:45;12.27;;;6.37;;
4583;SDS011;2304;47.606;12.186;2023-06-22T21:13:48;14.10;;;6.40;;
4583;SDS011;2304;47.606;12.186;2023-06-22T21:18:50;21.90;;;5.83;;
4583;SDS011;2304;47.606;12.186;2023-06-22T21:23:52;16.40;;;6.60;;
4583;SDS011;2304;47.606;12.186;2023-06-22T21:28:55;15.03;;;6.40;;
4583;SDS011;2304;47.606;12.186;2023-06-22T21:33:57;21.80;;;6.30;;
4583;SDS011;2304;47.606;12.186;2023-06-22T21:38:59;14.73;;;6.30;;
4583;SDS011;2304;47.606;12.186;2023-06-22T21:44:02;14.93;;;6.30;;
4583;SDS011;2304;47.606;12.186;2023-06-22T21:49:04;18.43;;;7.43;;
4583;SDS011;2304;47.606;12.186;2023-06-22T21:54:06;17.33;;;7.17;;
4583;SDS011;2304;47.606;12.186;2023-06-22T21:59:09;13.50;;;5.43;;
4583;SDS011;2304;47.606;12.186;2023-06-22T22:04:11;12.83;;;5.60;;
4583;SDS011;2304;47.606;12.186;2023-06-22T22:09:15;17.70;;;5.57;;
4583;SDS011;2304;47.606;12.186;2023-06-22T22:14:18;19.53;;;5.30;;
4583;SDS011;2304;47.606;12.186;2023-06-22T22:19:20;12.73;;;4.43;;
4583;SDS011;2304;47.606;12.186;2023-06-22T22:24:22;13.83;;;5.10;;
4583;SDS011;2304;47.606;12.186;2023-06-22T22:29:25;11.67;;;4.70;;
4583;SDS011;2304;47.606;12.186;2023-06-22T22:34:28;15.70;;;5.70;;
4583;SDS011;2304;47.606;12.186;2023-06-22T22:39:30;13.10;;;5.20;;
4583;SDS011;2304;47.606;12.186;2023-06-22T22:44:36;12.40;;;4.67;;
4583;SDS011;2304;47.606;12.186;2023-06-22T22:49:38;12.10;;;4.70;;
4583;SDS011;2304;47.606;12.186;2023-06-22T22:54:39;12.73;;;4.40;;
4583;SDS011;2304;47.606;12.186;2023-06-22T22:59:44;11.97;;;4.50;;
4583;SDS011;2304;47.606;12.186;2023-06-22T23:04:53;12.03;;;4.60;;
4583;SDS011;2304;47.606;12.186;2023-06-22T23:09:55;11.33;;;4.60;;
4583;SDS011;2304;47.606;12.186;2023-06-22T23:14:59;7.90;;;3.43;;
4583;SDS011;2304;47.606;12.186;2023-06-22T23:20:02;7.93;;;3.50;;
4583;SDS011;2304;47.606;12.186;2023-06-22T23:25:06;11.93;;;3.40;;
4583;SDS011;2304;47.606;12.186;2023-06-22T23:30:11;9.60;;;3.13;;
4583;SDS011;2304;47.606;12.186;2023-06-22T23:35:13;6.97;;;3.23;;
4583;SDS011;2304;47.606;12.186;2023-06-22T23:40:15;6.57;;;3.23;;
4583;SDS011;2304;47.606;12.186;2023-06-22T23:45:19;8.50;;;3.30;;
4583;SDS011;2304;47.606;12.186;2023-06-22T23:50:21;11.07;;;3.30;;
4583;SDS011;2304;47.606;12.186;2023-06-22T23:55:23;4.90;;;2.33;;
